WetterOnline ( https://www.wetteronline.de )

Wetter aktuell Lutherstadt Wittenberg

Aktuelles Wetter: Wittenberg (106m)

6-stündlich | Neueste Meldungen
Ortszeit Temperatur Wetter
Mi, 17.04. 14:00 9.7° C bedeckt
Mi, 17.04. 8:00 3.0° C bewölkt
Mi, 17.04. 2:00 3.3° C wolkig
Di, 16.04. 20:00 7.9° C bewölkt
Di, 16.04. 14:00 9.6° C bedeckt
Di, 16.04. 8:00 5.8° C wolkig
Di, 16.04. 2:00 5.3° C bewölkt
Mo, 15.04. 20:00 11.7° C leichter Regen
Ortszeit Temperatur Wetter
Mi, 17.04. 18:00 10.6° C bedeckt
Mi, 17.04. 17:50 10.6° C bedeckt
Mi, 17.04. 17:40 10.9° C bedeckt
Mi, 17.04. 17:30 10.8° C bedeckt
Mi, 17.04. 17:20 10.8° C bedeckt
Mi, 17.04. 17:10 11.5° C bedeckt
Mi, 17.04. 17:00 10.4° C bewölkt
Mi, 17.04. 16:30 11.6° C leicht bewölkt
Mi, 17.04. 16:00 11.0° C bewölkt
Mi, 17.04. 15:30 10.2° C bewölkt
Mi, 17.04. 15:00 10.8° C bewölkt
Ortszeit Relative Feuchte Sichtweite
Mi, 17.04. 14:00 55% 60 km
Mi, 17.04. 8:00 96% 17 km
Mi, 17.04. 2:00 92% >70 km
Di, 16.04. 20:00 74% 65 km
Di, 16.04. 14:00 59% >70 km
Di, 16.04. 8:00 74% >70 km
Di, 16.04. 2:00 80% 65 km
Mo, 15.04. 20:00 66% 12 km
Ortszeit Relative Feuchte Sichtweite
Mi, 17.04. 18:00 43% >70 km
Mi, 17.04. 17:50 43% -
Mi, 17.04. 17:40 43% -
Mi, 17.04. 17:30 41% 60 km
Mi, 17.04. 17:20 41% -
Mi, 17.04. 17:10 40% -
Mi, 17.04. 17:00 41% 50 km
Mi, 17.04. 16:30 39% 65 km
Mi, 17.04. 16:00 45% 60 km
Mi, 17.04. 15:30 48% >70 km
Mi, 17.04. 15:00 42% 65 km
Ortszeit Niederschlagsmenge Niederschlagsart
Mi, 17.04. 14:00 0.1 l/m2 in 6 Std. Regen
Mi, 17.04. 8:00 0.1 l/m2 in 12 Std. -
Mi, 17.04. 2:00 0.1 l/m2 in 6 Std. Regen
Di, 16.04. 20:00 0.1 l/m2 in 12 Std. Regen
Di, 16.04. 14:00 0.1 l/m2 in 6 Std. Regen
Di, 16.04. 8:00 3 l/m2 in 12 Std. Regen
Di, 16.04. 2:00 3 l/m2 in 6 Std. Regen
Mo, 15.04. 20:00 0.1 l/m2 in 12 Std. Regen
Ortszeit Niederschlagsmenge Niederschlagsart
Mi, 17.04. 18:00 0.0 l/m2 in 1 Std. -
Mi, 17.04. 17:50 keine Meldung -
Mi, 17.04. 17:40 keine Meldung -
Mi, 17.04. 17:30 0.0 l/m2 in 30 Min -
Mi, 17.04. 17:20 keine Meldung -
Mi, 17.04. 17:10 keine Meldung -
Mi, 17.04. 17:00 0.0 l/m2 in 1 Std. -
Mi, 17.04. 16:30 0.0 l/m2 in 30 Min -
Mi, 17.04. 16:00 0.0 l/m2 in 1 Std. -
Mi, 17.04. 15:30 0.0 l/m2 in 30 Min -
Mi, 17.04. 15:00 0.0 l/m2 in 1 Std. -
Ortszeit Stärke Spitze Richtung
km/h Bft. km/h Grad Sektor
Mi, 17.04. 14:00 7 2 18 180° S
Mi, 17.04. 8:00 4 1 14 250° W
Mi, 17.04. 2:00 6 1 26 290° W
Di, 16.04. 20:00 9 2 31 300° NW
Di, 16.04. 14:00 19 3 48 250° W
Di, 16.04. 8:00 18 3 36 240° SW
Di, 16.04. 2:00 18 3 58 240° SW
Mo, 15.04. 20:00 30 5 48 250° W
Ortszeit Stärke Spitze Richtung
km/h Bft. km/h Grad Sektor
Mi, 17.04. 18:00 17 3 26 360° N
Mi, 17.04. 17:50 17 3 - 360° N
Mi, 17.04. 17:40 13 3 - 360° N
Mi, 17.04. 17:30 11 2 22 300° NW
Mi, 17.04. 17:20 11 2 - 300° NW
Mi, 17.04. 17:10 7 2 - 290° W
Mi, 17.04. 17:00 13 3 26 330° NW
Mi, 17.04. 16:30 11 2 22 320° NW
Mi, 17.04. 16:00 7 2 25 320° NW
Mi, 17.04. 15:30 11 2 24 340° N
Mi, 17.04. 15:00 11 2 36 350° N
Ortszeit Untergrenze Bedeckung Gattung
total tief tief mittel hoch
Mi, 17.04. 14:00 1500 m 8/8 8/8 - - -
Mi, 17.04. 8:00 60 m 7/8 7/8 - - -
Mi, 17.04. 2:00 7500 m 8/8 0/8 - - -
Di, 16.04. 20:00 1500 m 8/8 5/8 - - -
Di, 16.04. 14:00 1050 m 8/8 8/8 - - -
Di, 16.04. 8:00 1350 m 5/8 5/8 - - -
Di, 16.04. 2:00 1080 m 7/8 7/8 - - -
Mo, 15.04. 20:00 750 m 8/8 8/8 - - -
Ortszeit Bedeckungsgrad in Achtel und Wolkenuntergrenze
Mi, 17.04. 18:00 7(1500m) 8(2400m) 8(6900m)
Mi, 17.04. 17:50 7(1500m) 8(2400m) 8(6900m)
Mi, 17.04. 17:40 8
Mi, 17.04. 17:30 8(2400m) 8(7200m)
Mi, 17.04. 17:20 8(2400m) 8(7200m)
Mi, 17.04. 17:10 8
Mi, 17.04. 17:00 5(2400m) 8(7200m)
Mi, 17.04. 16:30 1(1500m) 4(7500m)
Mi, 17.04. 16:00 5(2100m) 6(6300m) 8(7500m)
Mi, 17.04. 15:30 7(1500m) 8(6600m) 8(7200m)
Mi, 17.04. 15:00 4(2100m) 8(6900m) 8(7500m)
Ortszeit Luftdruck NN (hPa) Tendenz (hPa in 3 Std.)
Mi, 17.04. 14:00 1008 - 0,4
Mi, 17.04. 8:00 1008 + 1,3
Mi, 17.04. 2:00 1006 + 1,7
Di, 16.04. 20:00 1002 + 1,1
Di, 16.04. 14:00 1001 0,0
Di, 16.04. 8:00 1001 + 0,1
Di, 16.04. 2:00 1001 + 1,2
Mo, 15.04. 20:00 999 - 3,0
Ortszeit Luftdruck NN (hPa) Tendenz (hPa in 3 Std.)
Mi, 17.04. 18:00 1008 - 0,1
Mi, 17.04. 17:50 1008 keine Meldung
Mi, 17.04. 17:40 1008 keine Meldung
Mi, 17.04. 17:30 1008 - 0,3
Mi, 17.04. 17:20 1008 keine Meldung
Mi, 17.04. 17:10 1008 keine Meldung
Mi, 17.04. 17:00 1008 - 0,1
Mi, 17.04. 16:30 1008 - 0,3
Mi, 17.04. 16:00 1008 - 0,3
Mi, 17.04. 15:30 1008 0,0
Mi, 17.04. 15:00 1008 - 0,3
Ortszeit Schneehöhe (cm)
Mi, 17.04. 14:00 0
Mi, 17.04. 8:00 0
Mi, 17.04. 2:00 0
Di, 16.04. 20:00 0
Di, 16.04. 14:00 0
Di, 16.04. 8:00 0
Di, 16.04. 2:00 0
Mo, 15.04. 20:00 0
Ortszeit Schneehöhe (cm)
Mi, 17.04. 18:00 0
Mi, 17.04. 17:50 0
Mi, 17.04. 17:40 -
Mi, 17.04. 17:30 0
Mi, 17.04. 17:20 0
Mi, 17.04. 17:10 -
Mi, 17.04. 17:00 0
Mi, 17.04. 16:30 0
Mi, 17.04. 16:00 0
Mi, 17.04. 15:30 0
Mi, 17.04. 15:00 0
Link zu dieser Seite / Seite empfehlen

Das Wetter in ...